Alexandra — WDD5677 — position and weather

sailwx.info

Track history (hours):
 
Tides and Currents Weather Stations Pressure Air Temp Water Temp Dewpoint Dewpoint Depression Visibility Wind Speed Wind Dir Waves Ship Positions

Alexandra

Owner: Weeks Marine, Inc., Cranford, NJ. More information available from US FCC via Universal Licensing System and Coast Guard Vessel Documentation Center.

Last reported at 2017-Dec-13 03:44 UTC. Time now 2017-Dec-18 05:21 UTC.
Position N 29°33' W 094°55'.

Length 37 m; draft 5 m.

Type: Tug. MMSI: 367161950.

Date/timePositionNaut miles runAvg speedWind from/ knotsBaromVisibWave heightAir tempDewpointWater temp
2017-Dec-13 03:44N 29°33' W 094°55'1 4.3
2017-Dec-13 03:29N 29°34' W 094°55'2 4.1
2017-Dec-13 03:00N 29°36' W 094°57'2 4.2
2017-Dec-13 02:30N 29°37' W 094°58'2 4.1
2017-Dec-13 02:00N 29°39' W 094°58'2 4.1
2017-Dec-13 01:30N 29°41' W 094°59'1 1.6
2017-Dec-13 01:00N 29°42' W 094°60'0 0.0
2017-Dec-13 00:30N 29°42' W 094°60'0 0.0
2017-Dec-12 23:51N 29°42' W 094°60'0 0.0
2017-Dec-12 23:30N 29°42' W 094°60'1 2.3
2017-Dec-12 23:00N 29°41' W 094°59'0 0.2
2017-Dec-12 22:30N 29°41' W 094°59'0 0.0
2017-Dec-12 22:00N 29°41' W 094°59'0 0.0
2017-Dec-12 21:30N 29°41' W 094°59'0 0.0
2017-Dec-12 21:00N 29°41' W 094°59'0 0.0
2017-Dec-12 20:30N 29°41' W 094°59'0 0.0
2017-Dec-12 20:00N 29°41' W 094°59'0 0.0
2017-Dec-12 19:18N 29°41' W 094°59'0 0.0
2017-Dec-12 18:56N 29°41' W 094°59'0 0.0
2017-Dec-12 18:30N 29°41' W 094°59'0 0.0
2017-Dec-12 18:00N 29°41' W 094°59'0 0.0
2017-Dec-12 17:30N 29°41' W 094°59'0 0.0
2017-Dec-12 16:58N 29°41' W 094°59'0 0.0
2017-Dec-12 16:30N 29°41' W 094°59'0 0.0
2017-Dec-12 16:00N 29°41' W 094°59'0 0.0
2017-Dec-12 15:28N 29°41' W 094°59'0 0.0
2017-Dec-12 15:00N 29°41' W 094°59'0 0.0
2017-Dec-12 14:30N 29°41' W 094°59'1 1.6
2017-Dec-12 13:53N 29°42' W 094°60'1 2.0
2017-Dec-12 13:22N 29°41' W 094°59'0 0.0
2017-Dec-12 13:00N 29°41' W 094°59'1 0.5
2017-Dec-12 10:31N 29°42' W 094°60'0 0.0
2017-Dec-12 10:19N 29°42' W 094°60'0 0.0
2017-Dec-12 09:59N 29°42' W 094°60'0 0.0
2017-Dec-12 07:51N 29°42' W 094°60'0 0.0
2017-Dec-12 07:27N 29°42' W 094°60'0 0.0
2017-Dec-12 06:49N 29°42' W 094°60'0 0.0
2017-Dec-12 06:30N 29°42' W 094°60'0 0.0
2017-Dec-12 04:49N 29°42' W 094°60'0 0.0
2017-Dec-12 04:21N 29°42' W 094°60'0 0.0
2017-Dec-12 03:55N 29°42' W 094°60'0 0.0
2017-Dec-12 03:26N 29°42' W 094°60'0 0.1
2017-Dec-11 23:49N 29°42' W 094°60'1 2.9
2017-Dec-11 23:29N 29°41' W 094°59'0 0.0
2017-Dec-11 23:00N 29°41' W 094°59'0 0.1
2017-Dec-11 22:30N 29°41' W 094°59'0 0.1
2017-Dec-11 22:00N 29°41' W 094°59'0 0.0
2017-Dec-11 21:30N 29°41' W 094°59'0 0.1
2017-Dec-11 21:00N 29°41' W 094°59'0 0.0
2017-Dec-11 20:31N 29°41' W 094°59'0 0.0
2017-Dec-11 20:00N 29°41' W 094°59'1 1.3
2017-Dec-11 19:28N 29°42' W 094°59'1 1.5
2017-Dec-11 19:00N 29°41' W 094°59'0 0.0
2017-Dec-11 18:30N 29°41' W 094°59'0 0.0
2017-Dec-11 18:00N 29°41' W 094°59'0 0.1
2017-Dec-11 17:30N 29°41' W 094°59'0 0.4
2017-Dec-11 17:01N 29°41' W 094°59'1 1.9
2017-Dec-11 16:23N 29°42' W 095°00'0 0.1
2017-Dec-11 15:43N 29°42' W 095°00'0 0.0
2017-Dec-11 15:27N 29°42' W 095°00'0 0.1
2017-Dec-11 15:00N 29°42' W 095°00'0 0.0
2017-Dec-11 14:30N 29°42' W 095°00'0 0.1
2017-Dec-11 14:00N 29°42' W 095°00'0 0.0
2017-Dec-11 13:30N 29°42' W 095°00'0 0.0
2017-Dec-11 12:57N 29°42' W 095°00'0 0.0
2017-Dec-11 01:02N 29°42' W 094°60'0 4.5
2017-Dec-11 01:00N 29°42' W 094°60'510.2
2017-Dec-11 00:30N 29°37' W 094°57'510.9
2017-Dec-10 23:59N 29°32' W 094°54'  
2017-Dec-04 10:31N 26°43' W 079°60'1 1.6
2017-Dec-04 10:00N 26°42' W 080°00'1 1.9
2017-Dec-04 09:31N 26°43' W 080°00'1 1.9
2017-Dec-04 09:00N 26°44' W 079°60'1 1.8
2017-Dec-04 08:31N 26°45' W 079°60'1 1.6
2017-Dec-04 08:01N 26°46' W 079°60'1 1.6
2017-Dec-04 07:30N 26°46' W 079°59'0 1.0
2017-Dec-04 07:00N 26°47' W 079°60'2 3.5
2017-Dec-04 06:30N 26°45' W 079°60'2 3.5
2017-Dec-04 06:00N 26°43' W 079°60'2 3.5
2017-Dec-04 05:31N 26°42' W 080°00'2 3.5
2017-Dec-04 05:00N 26°40' W 079°60'1 1.9
2017-Dec-04 04:30N 26°39' W 080°00'1 1.8
2017-Dec-04 04:00N 26°40' W 080°00'1 1.8
2017-Dec-04 03:31N 26°41' W 080°00'1 1.8
2017-Dec-04 03:00N 26°42' W 080°00'1 2.0
2017-Dec-04 02:31N 26°43' W 080°00'1 2.2
2017-Dec-04 02:01N 26°44' W 080°00'1 2.2
2017-Dec-04 01:30N 26°45' W 079°60'1 2.2
2017-Dec-04 01:01N 26°46' W 079°60'1 1.1
2017-Dec-04 00:31N 26°46' W 079°60'2 0.3
2017-Dec-03 18:50N 26°48' W 079°59'1 2.2
2017-Dec-03 18:29N 26°48' W 079°59'1 2.1
2017-Dec-03 18:00N 26°49' W 079°59'1 2.1
2017-Dec-03 17:30N 26°51' W 079°59'1 1.9
2017-Dec-03 17:00N 26°51' W 079°59'2 1.7
2017-Dec-03 15:57N 26°53' W 079°60'1 1.9
2017-Dec-03 15:30N 26°54' W 079°59'1 1.8
2017-Dec-03 15:00N 26°55' W 079°59'1 1.4
2017-Dec-03 14:30N 26°55' W 079°59'1 1.2
2017-Dec-03 14:00N 26°56' W 079°59'1 1.5
2017-Dec-03 13:30N 26°57' W 079°59'1 2.1
2017-Dec-03 13:00N 26°58' W 079°60'1 2.2
2017-Dec-03 12:31N 26°59' W 080°00'1 2.3
2017-Dec-03 12:01N 26°60' W 080°01'1 2.3
2017-Dec-03 11:30N 27°01' W 080°01'1 2.3
2017-Dec-03 11:01N 27°02' W 080°02'1 2.3
2017-Dec-03 10:30N 27°03' W 080°03'1 2.3
2017-Dec-03 10:00N 27°04' W 080°03'  
Track history (hours):
 
Tides and Currents Weather Stations Pressure Air Temp Water Temp Dewpoint Dewpoint Depression Visibility Wind Speed Wind Dir Waves Ship Positions

Alexandra

Owner: Weeks Marine, Inc., Cranford, NJ. More information available from US FCC via Universal Licensing System and Coast Guard Vessel Documentation Center.

Last reported at 2017-Dec-13 03:44 UTC. Time now 2017-Dec-18 05:21 UTC.
Position N 29°33' W 094°55'.

Length 37 m; draft 5 m.

Type: Tug. MMSI: 367161950.

Date/timePositionNaut miles runAvg speedWind from/ knotsBaromVisibWave heightAir tempDewpointWater temp
2017-Dec-13 03:44N 29°33' W 094°55'1 4.3
2017-Dec-13 03:29N 29°34' W 094°55'2 4.1
2017-Dec-13 03:00N 29°36' W 094°57'2 4.2
2017-Dec-13 02:30N 29°37' W 094°58'2 4.1
2017-Dec-13 02:00N 29°39' W 094°58'2 4.1
2017-Dec-13 01:30N 29°41' W 094°59'1 1.6
2017-Dec-13 01:00N 29°42' W 094°60'0 0.0
2017-Dec-13 00:30N 29°42' W 094°60'0 0.0
2017-Dec-12 23:51N 29°42' W 094°60'0 0.0
2017-Dec-12 23:30N 29°42' W 094°60'1 2.3
2017-Dec-12 23:00N 29°41' W 094°59'0 0.2
2017-Dec-12 22:30N 29°41' W 094°59'0 0.0
2017-Dec-12 22:00N 29°41' W 094°59'0 0.0
2017-Dec-12 21:30N 29°41' W 094°59'0 0.0
2017-Dec-12 21:00N 29°41' W 094°59'0 0.0
2017-Dec-12 20:30N 29°41' W 094°59'0 0.0
2017-Dec-12 20:00N 29°41' W 094°59'0 0.0
2017-Dec-12 19:18N 29°41' W 094°59'0 0.0
2017-Dec-12 18:56N 29°41' W 094°59'0 0.0
2017-Dec-12 18:30N 29°41' W 094°59'0 0.0
2017-Dec-12 18:00N 29°41' W 094°59'0 0.0
2017-Dec-12 17:30N 29°41' W 094°59'0 0.0
2017-Dec-12 16:58N 29°41' W 094°59'0 0.0
2017-Dec-12 16:30N 29°41' W 094°59'0 0.0
2017-Dec-12 16:00N 29°41' W 094°59'0 0.0
2017-Dec-12 15:28N 29°41' W 094°59'0 0.0
2017-Dec-12 15:00N 29°41' W 094°59'0 0.0
2017-Dec-12 14:30N 29°41' W 094°59'1 1.6
2017-Dec-12 13:53N 29°42' W 094°60'1 2.0
2017-Dec-12 13:22N 29°41' W 094°59'0 0.0
2017-Dec-12 13:00N 29°41' W 094°59'1 0.5
2017-Dec-12 10:31N 29°42' W 094°60'0 0.0
2017-Dec-12 10:19N 29°42' W 094°60'0 0.0
2017-Dec-12 09:59N 29°42' W 094°60'0 0.0
2017-Dec-12 07:51N 29°42' W 094°60'0 0.0
2017-Dec-12 07:27N 29°42' W 094°60'0 0.0
2017-Dec-12 06:49N 29°42' W 094°60'0 0.0
2017-Dec-12 06:30N 29°42' W 094°60'0 0.0
2017-Dec-12 04:49N 29°42' W 094°60'0 0.0
2017-Dec-12 04:21N 29°42' W 094°60'0 0.0
2017-Dec-12 03:55N 29°42' W 094°60'0 0.0
2017-Dec-12 03:26N 29°42' W 094°60'0 0.1
2017-Dec-11 23:49N 29°42' W 094°60'1 2.9
2017-Dec-11 23:29N 29°41' W 094°59'0 0.0
2017-Dec-11 23:00N 29°41' W 094°59'0 0.1
2017-Dec-11 22:30N 29°41' W 094°59'0 0.1
2017-Dec-11 22:00N 29°41' W 094°59'0 0.0
2017-Dec-11 21:30N 29°41' W 094°59'0 0.1
2017-Dec-11 21:00N 29°41' W 094°59'0 0.0
2017-Dec-11 20:31N 29°41' W 094°59'0 0.0
2017-Dec-11 20:00N 29°41' W 094°59'1 1.3
2017-Dec-11 19:28N 29°42' W 094°59'1 1.5
2017-Dec-11 19:00N 29°41' W 094°59'0 0.0
2017-Dec-11 18:30N 29°41' W 094°59'0 0.0
2017-Dec-11 18:00N 29°41' W 094°59'0 0.1
2017-Dec-11 17:30N 29°41' W 094°59'0 0.4
2017-Dec-11 17:01N 29°41' W 094°59'1 1.9
2017-Dec-11 16:23N 29°42' W 095°00'0 0.1
2017-Dec-11 15:43N 29°42' W 095°00'0 0.0
2017-Dec-11 15:27N 29°42' W 095°00'0 0.1
2017-Dec-11 15:00N 29°42' W 095°00'0 0.0
2017-Dec-11 14:30N 29°42' W 095°00'0 0.1
2017-Dec-11 14:00N 29°42' W 095°00'0 0.0
2017-Dec-11 13:30N 29°42' W 095°00'0 0.0
2017-Dec-11 12:57N 29°42' W 095°00'0 0.0
2017-Dec-11 01:02N 29°42' W 094°60'0 4.5
2017-Dec-11 01:00N 29°42' W 094°60'510.2
2017-Dec-11 00:30N 29°37' W 094°57'510.9
2017-Dec-10 23:59N 29°32' W 094°54'  
2017-Dec-04 10:31N 26°43' W 079°60'1 1.6
2017-Dec-04 10:00N 26°42' W 080°00'1 1.9
2017-Dec-04 09:31N 26°43' W 080°00'1 1.9
2017-Dec-04 09:00N 26°44' W 079°60'1 1.8
2017-Dec-04 08:31N 26°45' W 079°60'1 1.6
2017-Dec-04 08:01N 26°46' W 079°60'1 1.6
2017-Dec-04 07:30N 26°46' W 079°59'0 1.0
2017-Dec-04 07:00N 26°47' W 079°60'2 3.5
2017-Dec-04 06:30N 26°45' W 079°60'2 3.5
2017-Dec-04 06:00N 26°43' W 079°60'2 3.5
2017-Dec-04 05:31N 26°42' W 080°00'2 3.5
2017-Dec-04 05:00N 26°40' W 079°60'1 1.9
2017-Dec-04 04:30N 26°39' W 080°00'1 1.8
2017-Dec-04 04:00N 26°40' W 080°00'1 1.8
2017-Dec-04 03:31N 26°41' W 080°00'1 1.8
2017-Dec-04 03:00N 26°42' W 080°00'1 2.0
2017-Dec-04 02:31N 26°43' W 080°00'1 2.2
2017-Dec-04 02:01N 26°44' W 080°00'1 2.2
2017-Dec-04 01:30N 26°45' W 079°60'1 2.2
2017-Dec-04 01:01N 26°46' W 079°60'1 1.1
2017-Dec-04 00:31N 26°46' W 079°60'2 0.3
2017-Dec-03 18:50N 26°48' W 079°59'1 2.2
2017-Dec-03 18:29N 26°48' W 079°59'1 2.1
2017-Dec-03 18:00N 26°49' W 079°59'1 2.1
2017-Dec-03 17:30N 26°51' W 079°59'1 1.9
2017-Dec-03 17:00N 26°51' W 079°59'2 1.7
2017-Dec-03 15:57N 26°53' W 079°60'1 1.9
2017-Dec-03 15:30N 26°54' W 079°59'1 1.8
2017-Dec-03 15:00N 26°55' W 079°59'1 1.4
2017-Dec-03 14:30N 26°55' W 079°59'1 1.2
2017-Dec-03 14:00N 26°56' W 079°59'1 1.5
2017-Dec-03 13:30N 26°57' W 079°59'1 2.1
2017-Dec-03 13:00N 26°58' W 079°60'1 2.2
2017-Dec-03 12:31N 26°59' W 080°00'1 2.3
2017-Dec-03 12:01N 26°60' W 080°01'1 2.3
2017-Dec-03 11:30N 27°01' W 080°01'1 2.3
2017-Dec-03 11:01N 27°02' W 080°02'1 2.3
2017-Dec-03 10:30N 27°03' W 080°03'1 2.3
2017-Dec-03 10:00N 27°04' W 080°03'  

Dump ship's entire track history